WAT8809 RCSS-VHHH
Flight info
| Callsign | WAT8809 |
|---|---|
| Flight time | 1h 28m |
| Altitude | 34000 |
| Route | MKG A1 ELATO V522 ABBEY |
| Aircraft | B738/M-SDE2E3FGHIRWXY/LB1 |
Departure
| Time | 2026-05-04 00:53 |
|---|---|
| Airport | Taipei Songshan International Airport (RCSS) |
Arrival
| Time | 2026-05-04 02:22 |
|---|---|
| Airport | Hong Kong International Airport (VHHH) |
| Time | Latitude | Longitude | Altitude | Speed | Heading |
|---|---|---|---|---|---|
| 2026-05-04 00:45 | 25.06657 | 121.55342 | 20 ft | 0 kts | 0° |
| 2026-05-04 00:49 | 25.06677 | 121.55342 | 21 ft | 11 kts | 0° |
| 2026-05-04 00:49 | 25.06757 | 121.55320 | 20 ft | 12 kts | 333° |
| 2026-05-04 00:49 | 25.06793 | 121.55243 | 20 ft | 12 kts | 269° |
| 2026-05-04 00:49 | 25.06764 | 121.55155 | 20 ft | 16 kts | 237° |
| 2026-05-04 00:50 | 25.06747 | 121.55014 | 20 ft | 20 kts | 269° |
| 2026-05-04 00:50 | 25.06743 | 121.54865 | 20 ft | 19 kts | 268° |
| 2026-05-04 00:50 | 25.06738 | 121.54722 | 22 ft | 18 kts | 267° |
| 2026-05-04 00:50 | 25.06738 | 121.54582 | 20 ft | 18 kts | 270° |
| 2026-05-04 00:51 | 25.06752 | 121.54440 | 20 ft | 19 kts | 292° |
| 2026-05-04 00:51 | 25.06820 | 121.54320 | 20 ft | 18 kts | 303° |
| 2026-05-04 00:51 | 25.06883 | 121.54202 | 22 ft | 18 kts | 295° |
| 2026-05-04 00:51 | 25.06912 | 121.54076 | 20 ft | 17 kts | 272° |
| 2026-05-04 00:52 | 25.06957 | 121.53973 | 20 ft | 16 kts | 348° |
| 2026-05-04 00:52 | 25.07004 | 121.54056 | 21 ft | 16 kts | 93° |
| 2026-05-04 00:52 | 25.06989 | 121.54424 | 18 ft | 86 kts | 91° |
| 2026-05-04 00:52 | 25.06955 | 121.55337 | 26 ft | 149 kts | 94° |
| 2026-05-04 00:53 | 25.06907 | 121.56594 | 483 ft | 173 kts | 94° |
| 2026-05-04 00:53 | 25.06999 | 121.57976 | 1196 ft | 189 kts | 70° |
| 2026-05-04 00:53 | 25.07720 | 121.59183 | 2012 ft | 187 kts | 54° |
| 2026-05-04 00:53 | 25.08493 | 121.60311 | 2860 ft | 183 kts | 55° |
| 2026-05-04 00:54 | 25.09261 | 121.61434 | 3636 ft | 184 kts | 55° |
| 2026-05-04 00:54 | 25.10148 | 121.62473 | 4277 ft | 194 kts | 36° |
| 2026-05-04 00:54 | 25.11567 | 121.62929 | 4550 ft | 237 kts | 4° |
| 2026-05-04 00:54 | 25.13273 | 121.62424 | 4935 ft | 273 kts | 332° |
| 2026-05-04 00:55 | 25.14670 | 121.60957 | 5718 ft | 285 kts | 302° |
| 2026-05-04 00:55 | 25.15332 | 121.58930 | 6682 ft | 275 kts | 271° |
| 2026-05-04 00:55 | 25.15077 | 121.56922 | 7879 ft | 260 kts | 246° |
| 2026-05-04 00:55 | 25.14165 | 121.55227 | 8902 ft | 257 kts | 235° |
| 2026-05-04 00:56 | 25.13087 | 121.53647 | 9863 ft | 258 kts | 234° |
| 2026-05-04 00:56 | 25.11957 | 121.52090 | 10602 ft | 267 kts | 233° |
| 2026-05-04 00:56 | 25.10732 | 121.50415 | 10801 ft | 293 kts | 233° |
| 2026-05-04 00:56 | 25.09407 | 121.48590 | 10974 ft | 316 kts | 233° |
| 2026-05-04 00:57 | 25.07991 | 121.46633 | 11195 ft | 335 kts | 233° |
| 2026-05-04 00:57 | 25.06525 | 121.44601 | 11718 ft | 341 kts | 233° |
| 2026-05-04 00:57 | 25.05045 | 121.42544 | 12432 ft | 342 kts | 233° |
| 2026-05-04 00:57 | 25.03571 | 121.40492 | 13215 ft | 343 kts | 233° |
| 2026-05-04 00:58 | 25.02075 | 121.38407 | 13906 ft | 349 kts | 233° |
| 2026-05-04 00:58 | 25.00564 | 121.36299 | 14622 ft | 353 kts | 233° |
| 2026-05-04 00:58 | 24.99054 | 121.34192 | 15287 ft | 357 kts | 233° |
| 2026-05-04 00:58 | 24.97503 | 121.32034 | 15883 ft | 361 kts | 233° |
| 2026-05-04 00:59 | 24.95934 | 121.29858 | 16439 ft | 364 kts | 233° |
| 2026-05-04 00:59 | 24.94310 | 121.27654 | 16954 ft | 368 kts | 231° |
| 2026-05-04 00:59 | 24.92600 | 121.25532 | 17407 ft | 373 kts | 231° |
| 2026-05-04 00:59 | 24.90863 | 121.23393 | 17876 ft | 377 kts | 230° |
| 2026-05-04 01:00 | 24.89103 | 121.21228 | 18302 ft | 381 kts | 230° |
| 2026-05-04 01:00 | 24.87348 | 121.19070 | 18719 ft | 384 kts | 230° |
| 2026-05-04 01:00 | 24.85565 | 121.16874 | 19166 ft | 385 kts | 230° |
| 2026-05-04 01:00 | 24.83777 | 121.14673 | 19622 ft | 387 kts | 231° |
| 2026-05-04 01:01 | 24.81978 | 121.12456 | 20013 ft | 390 kts | 231° |
| 2026-05-04 01:01 | 24.80167 | 121.10222 | 20390 ft | 393 kts | 231° |
| 2026-05-04 01:01 | 24.78339 | 121.07970 | 20781 ft | 395 kts | 231° |
| 2026-05-04 01:01 | 24.76504 | 121.05709 | 21171 ft | 397 kts | 231° |
| 2026-05-04 01:02 | 24.74659 | 121.03437 | 21569 ft | 399 kts | 231° |
| 2026-05-04 01:02 | 24.72803 | 121.01152 | 21959 ft | 401 kts | 231° |
| 2026-05-04 01:02 | 24.70940 | 120.98860 | 22321 ft | 403 kts | 231° |
| 2026-05-04 01:02 | 24.69062 | 120.96550 | 22675 ft | 406 kts | 231° |
| 2026-05-04 01:03 | 24.67178 | 120.94234 | 23037 ft | 407 kts | 231° |
| 2026-05-04 01:03 | 24.65289 | 120.91914 | 23435 ft | 408 kts | 231° |
| 2026-05-04 01:03 | 24.63391 | 120.89583 | 23735 ft | 410 kts | 231° |
| 2026-05-04 01:03 | 24.61480 | 120.87237 | 23991 ft | 413 kts | 231° |
| 2026-05-04 01:04 | 24.59562 | 120.84885 | 24249 ft | 414 kts | 231° |
| 2026-05-04 01:04 | 24.57637 | 120.82525 | 24528 ft | 415 kts | 231° |
| 2026-05-04 01:04 | 24.55707 | 120.80160 | 24795 ft | 417 kts | 231° |
| 2026-05-04 01:04 | 24.53767 | 120.77784 | 25063 ft | 418 kts | 231° |
| 2026-05-04 01:05 | 24.51820 | 120.75400 | 25337 ft | 419 kts | 231° |
| 2026-05-04 01:05 | 24.49871 | 120.73014 | 25587 ft | 420 kts | 231° |
| 2026-05-04 01:05 | 24.47915 | 120.70623 | 25836 ft | 422 kts | 231° |
| 2026-05-04 01:05 | 24.45950 | 120.68220 | 26074 ft | 423 kts | 231° |
| 2026-05-04 01:06 | 24.43981 | 120.65814 | 26311 ft | 425 kts | 231° |
| 2026-05-04 01:06 | 24.42005 | 120.63401 | 26551 ft | 426 kts | 231° |
| 2026-05-04 01:06 | 24.40024 | 120.60983 | 26779 ft | 427 kts | 231° |
| 2026-05-04 01:06 | 24.38035 | 120.58556 | 26983 ft | 428 kts | 230° |
| 2026-05-04 01:07 | 24.36033 | 120.56114 | 27099 ft | 433 kts | 230° |
| 2026-05-04 01:07 | 24.34010 | 120.53648 | 27363 ft | 435 kts | 230° |
| 2026-05-04 01:07 | 24.31986 | 120.51183 | 27725 ft | 436 kts | 230° |
| 2026-05-04 01:07 | 24.29956 | 120.48712 | 28088 ft | 436 kts | 230° |
| 2026-05-04 01:08 | 24.27933 | 120.46252 | 28512 ft | 432 kts | 230° |
| 2026-05-04 01:08 | 24.25929 | 120.43816 | 28947 ft | 429 kts | 230° |
| 2026-05-04 01:08 | 24.23955 | 120.41417 | 29321 ft | 428 kts | 230° |
| 2026-05-04 01:08 | 24.21965 | 120.38999 | 29667 ft | 427 kts | 230° |
| 2026-05-04 01:09 | 24.19984 | 120.36593 | 30072 ft | 424 kts | 230° |
| 2026-05-04 01:09 | 24.18013 | 120.34202 | 30412 ft | 422 kts | 230° |
| 2026-05-04 01:09 | 24.16050 | 120.31820 | 30644 ft | 422 kts | 230° |
| 2026-05-04 01:09 | 24.14077 | 120.29426 | 30810 ft | 424 kts | 231° |
| 2026-05-04 01:10 | 24.12099 | 120.27027 | 31031 ft | 425 kts | 231° |
| 2026-05-04 01:10 | 24.10123 | 120.24633 | 31353 ft | 423 kts | 231° |
| 2026-05-04 01:10 | 24.08154 | 120.22250 | 31697 ft | 421 kts | 231° |
| 2026-05-04 01:10 | 24.06195 | 120.19879 | 32013 ft | 420 kts | 231° |
| 2026-05-04 01:11 | 24.04236 | 120.17510 | 32310 ft | 419 kts | 231° |
| 2026-05-04 01:11 | 24.02284 | 120.15151 | 32643 ft | 417 kts | 231° |
| 2026-05-04 01:11 | 24.00340 | 120.12801 | 32986 ft | 416 kts | 231° |
| 2026-05-04 01:11 | 23.98398 | 120.10456 | 33306 ft | 415 kts | 231° |
| 2026-05-04 01:12 | 23.96461 | 120.08116 | 33604 ft | 415 kts | 231° |
| 2026-05-04 01:12 | 23.94521 | 120.05776 | 33847 ft | 415 kts | 231° |
| 2026-05-04 01:12 | 23.92577 | 120.03429 | 34004 ft | 418 kts | 231° |
| 2026-05-04 01:13 | 23.88664 | 119.98712 | 34110 ft | 419 kts | 231° |
| 2026-05-04 01:13 | 23.84751 | 119.94002 | 34125 ft | 417 kts | 231° |
| 2026-05-04 01:14 | 23.80859 | 119.89320 | 34117 ft | 416 kts | 231° |
| 2026-05-04 01:14 | 23.76973 | 119.84650 | 34123 ft | 415 kts | 231° |
| 2026-05-04 01:15 | 23.73121 | 119.80025 | 34116 ft | 414 kts | 231° |
| 2026-05-04 01:15 | 23.69250 | 119.75380 | 34138 ft | 414 kts | 231° |
| 2026-05-04 01:16 | 23.65371 | 119.70730 | 34154 ft | 415 kts | 231° |
| 2026-05-04 01:16 | 23.61477 | 119.66067 | 34161 ft | 418 kts | 231° |
| 2026-05-04 01:17 | 23.57911 | 119.61084 | 34144 ft | 416 kts | 240° |
| 2026-05-04 01:17 | 23.54854 | 119.55723 | 34141 ft | 416 kts | 240° |
| 2026-05-04 01:18 | 23.51775 | 119.50376 | 34157 ft | 416 kts | 240° |
| 2026-05-04 01:18 | 23.48686 | 119.45041 | 34138 ft | 417 kts | 240° |
| 2026-05-04 01:19 | 23.45582 | 119.39696 | 34134 ft | 417 kts | 240° |
| 2026-05-04 01:19 | 23.42473 | 119.34348 | 34137 ft | 418 kts | 240° |
| 2026-05-04 01:20 | 23.39365 | 119.29008 | 34133 ft | 418 kts | 240° |
| 2026-05-04 01:20 | 23.36275 | 119.23702 | 34142 ft | 418 kts | 240° |
| 2026-05-04 01:21 | 23.33165 | 119.18368 | 34137 ft | 417 kts | 240° |
| 2026-05-04 01:21 | 23.30053 | 119.13037 | 34120 ft | 417 kts | 240° |
| 2026-05-04 01:22 | 23.26940 | 119.07709 | 34134 ft | 417 kts | 240° |
| 2026-05-04 01:22 | 23.23825 | 119.02384 | 34139 ft | 418 kts | 240° |
| 2026-05-04 01:23 | 23.20705 | 118.97054 | 34140 ft | 418 kts | 240° |
| 2026-05-04 01:23 | 23.17579 | 118.91722 | 34140 ft | 418 kts | 240° |
| 2026-05-04 01:24 | 23.14451 | 118.86389 | 34141 ft | 418 kts | 240° |
| 2026-05-04 01:24 | 23.11322 | 118.81062 | 34141 ft | 418 kts | 240° |
| 2026-05-04 01:25 | 23.08190 | 118.75734 | 34134 ft | 418 kts | 239° |
| 2026-05-04 01:25 | 23.05056 | 118.70408 | 34139 ft | 419 kts | 239° |
| 2026-05-04 01:26 | 23.01913 | 118.65074 | 34153 ft | 420 kts | 240° |
| 2026-05-04 01:26 | 22.99295 | 118.60633 | 34151 ft | 420 kts | 240° |
| 2026-05-04 01:27 | 22.96140 | 118.55287 | 34145 ft | 421 kts | 240° |
| 2026-05-04 01:27 | 22.92971 | 118.49940 | 34142 ft | 421 kts | 239° |
| 2026-05-04 01:28 | 22.89279 | 118.43736 | 34147 ft | 421 kts | 239° |
| 2026-05-04 01:28 | 22.86617 | 118.39266 | 34137 ft | 421 kts | 239° |
| 2026-05-04 01:29 | 22.83436 | 118.33926 | 34151 ft | 422 kts | 239° |
| 2026-05-04 01:29 | 22.80250 | 118.28581 | 34147 ft | 422 kts | 239° |
| 2026-05-04 01:30 | 22.77060 | 118.23235 | 34147 ft | 423 kts | 239° |
| 2026-05-04 01:30 | 22.73865 | 118.17886 | 34149 ft | 423 kts | 239° |
| 2026-05-04 01:31 | 22.70666 | 118.12537 | 34147 ft | 423 kts | 239° |
| 2026-05-04 01:31 | 22.67464 | 118.07188 | 34143 ft | 423 kts | 239° |
| 2026-05-04 01:32 | 22.64262 | 118.01841 | 34146 ft | 423 kts | 239° |
| 2026-05-04 01:32 | 22.61063 | 117.96508 | 34143 ft | 423 kts | 239° |
| 2026-05-04 01:33 | 22.57890 | 117.91198 | 34146 ft | 422 kts | 240° |
| 2026-05-04 01:33 | 22.54713 | 117.85856 | 34146 ft | 422 kts | 240° |
| 2026-05-04 01:34 | 22.51534 | 117.80514 | 34146 ft | 422 kts | 240° |
| 2026-05-04 01:34 | 22.48355 | 117.75181 | 34147 ft | 422 kts | 240° |
| 2026-05-04 01:35 | 22.45173 | 117.69850 | 34138 ft | 422 kts | 239° |
| 2026-05-04 01:35 | 22.41991 | 117.64523 | 34142 ft | 422 kts | 239° |
| 2026-05-04 01:36 | 22.38804 | 117.59192 | 34158 ft | 423 kts | 239° |
| 2026-05-04 01:36 | 22.35639 | 117.53830 | 34151 ft | 423 kts | 244° |
| 2026-05-04 01:37 | 22.33650 | 117.47899 | 34154 ft | 421 kts | 257° |
| 2026-05-04 01:37 | 22.33066 | 117.41617 | 34163 ft | 421 kts | 268° |
| 2026-05-04 01:38 | 22.32990 | 117.35282 | 34157 ft | 422 kts | 268° |
| 2026-05-04 01:38 | 22.32911 | 117.28935 | 34154 ft | 422 kts | 268° |
| 2026-05-04 01:39 | 22.32807 | 117.22594 | 34158 ft | 422 kts | 268° |
| 2026-05-04 01:39 | 22.32690 | 117.16253 | 34161 ft | 422 kts | 268° |
| 2026-05-04 01:40 | 22.32568 | 117.09920 | 34156 ft | 421 kts | 268° |
| 2026-05-04 01:40 | 22.32444 | 117.03596 | 34157 ft | 421 kts | 268° |
| 2026-05-04 01:41 | 22.32318 | 116.97285 | 34165 ft | 420 kts | 268° |
| 2026-05-04 01:41 | 22.32189 | 116.90981 | 34162 ft | 420 kts | 268° |
| 2026-05-04 01:42 | 22.32059 | 116.84681 | 34164 ft | 419 kts | 268° |
| 2026-05-04 01:42 | 22.31926 | 116.78393 | 34149 ft | 419 kts | 268° |
| 2026-05-04 01:43 | 22.31791 | 116.72137 | 34164 ft | 419 kts | 268° |
| 2026-05-04 01:43 | 22.31653 | 116.65835 | 34169 ft | 420 kts | 268° |
| 2026-05-04 01:44 | 22.31512 | 116.59518 | 34165 ft | 421 kts | 268° |
| 2026-05-04 01:44 | 22.31369 | 116.53191 | 34175 ft | 422 kts | 268° |
| 2026-05-04 01:45 | 22.31223 | 116.46859 | 34158 ft | 421 kts | 268° |
| 2026-05-04 01:45 | 22.31000 | 116.37383 | 34160 ft | 421 kts | 268° |
| 2026-05-04 01:46 | 22.30848 | 116.31072 | 34164 ft | 420 kts | 268° |
| 2026-05-04 01:46 | 22.30694 | 116.24768 | 34169 ft | 420 kts | 268° |
| 2026-05-04 01:47 | 22.30538 | 116.18485 | 34160 ft | 418 kts | 268° |
| 2026-05-04 01:47 | 22.30380 | 116.12218 | 34162 ft | 417 kts | 268° |
| 2026-05-04 01:48 | 22.30221 | 116.05962 | 34162 ft | 416 kts | 268° |
| 2026-05-04 01:48 | 22.30059 | 115.99721 | 34166 ft | 415 kts | 268° |
| 2026-05-04 01:49 | 22.29895 | 115.93492 | 34183 ft | 415 kts | 268° |
| 2026-05-04 01:49 | 22.29729 | 115.87255 | 33569 ft | 418 kts | 268° |
| 2026-05-04 01:50 | 22.29644 | 115.84129 | 32879 ft | 416 kts | 268° |
| 2026-05-04 01:50 | 22.29562 | 115.81008 | 32085 ft | 417 kts | 268° |
| 2026-05-04 01:50 | 22.29492 | 115.77860 | 31234 ft | 420 kts | 268° |
| 2026-05-04 01:50 | 22.29425 | 115.74690 | 30403 ft | 424 kts | 268° |
| 2026-05-04 01:51 | 22.29356 | 115.71500 | 29446 ft | 427 kts | 268° |
| 2026-05-04 01:51 | 22.29284 | 115.68292 | 28516 ft | 428 kts | 268° |
| 2026-05-04 01:51 | 22.29201 | 115.65089 | 27734 ft | 426 kts | 267° |
| 2026-05-04 01:51 | 22.29112 | 115.61908 | 27083 ft | 422 kts | 267° |
| 2026-05-04 01:52 | 22.29022 | 115.58758 | 26456 ft | 418 kts | 267° |
| 2026-05-04 01:52 | 22.28932 | 115.55640 | 25838 ft | 414 kts | 267° |
| 2026-05-04 01:52 | 22.28844 | 115.52552 | 25218 ft | 410 kts | 267° |
| 2026-05-04 01:52 | 22.28757 | 115.49481 | 24601 ft | 407 kts | 266° |
| 2026-05-04 01:53 | 22.28669 | 115.46435 | 23988 ft | 405 kts | 266° |
| 2026-05-04 01:53 | 22.28582 | 115.43402 | 23329 ft | 403 kts | 266° |
| 2026-05-04 01:53 | 22.28496 | 115.40392 | 22666 ft | 399 kts | 266° |
| 2026-05-04 01:53 | 22.28409 | 115.37411 | 22050 ft | 395 kts | 266° |
| 2026-05-04 01:54 | 22.28323 | 115.34462 | 21449 ft | 391 kts | 266° |
| 2026-05-04 01:54 | 22.28236 | 115.31535 | 20776 ft | 389 kts | 266° |
| 2026-05-04 01:54 | 22.28147 | 115.28625 | 20185 ft | 386 kts | 266° |
| 2026-05-04 01:54 | 22.28059 | 115.25743 | 19603 ft | 383 kts | 266° |
| 2026-05-04 01:55 | 22.27970 | 115.22878 | 19039 ft | 380 kts | 266° |
| 2026-05-04 01:55 | 22.27882 | 115.20036 | 18463 ft | 378 kts | 266° |
| 2026-05-04 01:55 | 22.27794 | 115.17212 | 17835 ft | 375 kts | 266° |
| 2026-05-04 01:55 | 22.27706 | 115.14410 | 17242 ft | 372 kts | 266° |
| 2026-05-04 01:56 | 22.27618 | 115.11632 | 16666 ft | 368 kts | 266° |
| 2026-05-04 01:56 | 22.27532 | 115.08920 | 16133 ft | 365 kts | 266° |
| 2026-05-04 01:56 | 22.27445 | 115.06164 | 15586 ft | 361 kts | 266° |
| 2026-05-04 01:56 | 22.27359 | 115.03503 | 15052 ft | 358 kts | 266° |
| 2026-05-04 01:57 | 22.27272 | 115.00788 | 14524 ft | 355 kts | 266° |
| 2026-05-04 01:57 | 22.27188 | 114.98165 | 14008 ft | 353 kts | 266° |
| 2026-05-04 01:57 | 22.27102 | 114.95521 | 13390 ft | 351 kts | 266° |
| 2026-05-04 01:57 | 22.27016 | 114.92901 | 12831 ft | 348 kts | 266° |
| 2026-05-04 01:58 | 22.26928 | 114.90296 | 12277 ft | 346 kts | 266° |
| 2026-05-04 01:58 | 22.26838 | 114.87715 | 11747 ft | 343 kts | 267° |
| 2026-05-04 01:58 | 22.26748 | 114.85159 | 11440 ft | 335 kts | 267° |
| 2026-05-04 01:58 | 22.26662 | 114.82696 | 11263 ft | 323 kts | 267° |
| 2026-05-04 01:59 | 22.26559 | 114.80319 | 11120 ft | 311 kts | 263° |
| 2026-05-04 01:59 | 22.25928 | 114.78145 | 10981 ft | 301 kts | 244° |
| 2026-05-04 01:59 | 22.24768 | 114.76293 | 10844 ft | 298 kts | 230° |
| 2026-05-04 01:59 | 22.23291 | 114.74685 | 10726 ft | 306 kts | 226° |
| 2026-05-04 02:00 | 22.21751 | 114.73123 | 10564 ft | 298 kts | 226° |
| 2026-05-04 02:00 | 22.20274 | 114.71644 | 10406 ft | 281 kts | 226° |
| 2026-05-04 02:00 | 22.18883 | 114.70247 | 10266 ft | 266 kts | 226° |
| 2026-05-04 02:00 | 22.17556 | 114.68904 | 10144 ft | 258 kts | 227° |
| 2026-05-04 02:01 | 22.16242 | 114.67563 | 10044 ft | 263 kts | 227° |
| 2026-05-04 02:01 | 22.14905 | 114.66194 | 9924 ft | 267 kts | 227° |
| 2026-05-04 02:01 | 22.13561 | 114.64817 | 9781 ft | 267 kts | 227° |
| 2026-05-04 02:01 | 22.12215 | 114.63438 | 9643 ft | 267 kts | 227° |
| 2026-05-04 02:02 | 22.10873 | 114.62062 | 9510 ft | 266 kts | 227° |
| 2026-05-04 02:02 | 22.09543 | 114.60698 | 9400 ft | 260 kts | 226° |
| 2026-05-04 02:02 | 22.08235 | 114.59356 | 9265 ft | 262 kts | 226° |
| 2026-05-04 02:02 | 22.06908 | 114.57994 | 9135 ft | 265 kts | 226° |
| 2026-05-04 02:03 | 22.05563 | 114.56616 | 8999 ft | 267 kts | 226° |
| 2026-05-04 02:03 | 22.04217 | 114.55237 | 8861 ft | 266 kts | 226° |
| 2026-05-04 02:03 | 22.02883 | 114.53869 | 8731 ft | 264 kts | 227° |
| 2026-05-04 02:03 | 22.01851 | 114.52268 | 8592 ft | 259 kts | 248° |
| 2026-05-04 02:04 | 22.01170 | 114.50477 | 8499 ft | 259 kts | 249° |
| 2026-05-04 02:04 | 22.00494 | 114.48679 | 8365 ft | 259 kts | 249° |
| 2026-05-04 02:04 | 21.99824 | 114.46902 | 8244 ft | 260 kts | 249° |
| 2026-05-04 02:04 | 21.99141 | 114.45096 | 8120 ft | 261 kts | 249° |
| 2026-05-04 02:05 | 21.98452 | 114.43284 | 7990 ft | 261 kts | 249° |
| 2026-05-04 02:05 | 21.97761 | 114.41470 | 7862 ft | 262 kts | 249° |
| 2026-05-04 02:05 | 21.97069 | 114.39659 | 7739 ft | 262 kts | 249° |
| 2026-05-04 02:05 | 21.96374 | 114.37842 | 7616 ft | 262 kts | 249° |
| 2026-05-04 02:06 | 21.95682 | 114.36033 | 7493 ft | 261 kts | 249° |
| 2026-05-04 02:06 | 21.94992 | 114.34234 | 7362 ft | 260 kts | 249° |
| 2026-05-04 02:06 | 21.94304 | 114.32438 | 7241 ft | 259 kts | 249° |
| 2026-05-04 02:06 | 21.93619 | 114.30653 | 7112 ft | 258 kts | 249° |
| 2026-05-04 02:07 | 21.92936 | 114.28872 | 6988 ft | 257 kts | 249° |
| 2026-05-04 02:07 | 21.92253 | 114.27092 | 6863 ft | 255 kts | 249° |
| 2026-05-04 02:07 | 21.91584 | 114.25351 | 6758 ft | 248 kts | 249° |
| 2026-05-04 02:07 | 21.90931 | 114.23654 | 6648 ft | 244 kts | 249° |
| 2026-05-04 02:08 | 21.90279 | 114.21959 | 6525 ft | 246 kts | 249° |
| 2026-05-04 02:08 | 21.89676 | 114.20233 | 6384 ft | 246 kts | 258° |
| 2026-05-04 02:08 | 21.89759 | 114.18414 | 6262 ft | 245 kts | 284° |
| 2026-05-04 02:08 | 21.90417 | 114.16722 | 6149 ft | 246 kts | 296° |
| 2026-05-04 02:09 | 21.91246 | 114.15106 | 6023 ft | 246 kts | 298° |
| 2026-05-04 02:09 | 21.92097 | 114.13510 | 5898 ft | 246 kts | 298° |
| 2026-05-04 02:09 | 21.92949 | 114.11912 | 5780 ft | 246 kts | 298° |
| 2026-05-04 02:09 | 21.93797 | 114.10310 | 5661 ft | 246 kts | 298° |
| 2026-05-04 02:10 | 21.94637 | 114.08713 | 5536 ft | 245 kts | 298° |
| 2026-05-04 02:10 | 21.95471 | 114.07117 | 5424 ft | 244 kts | 298° |
| 2026-05-04 02:10 | 21.96302 | 114.05523 | 5299 ft | 244 kts | 298° |
| 2026-05-04 02:10 | 21.97132 | 114.03924 | 5189 ft | 244 kts | 298° |
| 2026-05-04 02:11 | 21.97960 | 114.02326 | 5080 ft | 244 kts | 298° |
| 2026-05-04 02:11 | 21.98789 | 114.00725 | 4955 ft | 245 kts | 298° |
| 2026-05-04 02:11 | 21.99619 | 113.99119 | 4838 ft | 245 kts | 297° |
| 2026-05-04 02:11 | 22.00167 | 113.98058 | 4760 ft | 245 kts | 297° |
| 2026-05-04 02:12 | 22.01268 | 113.95924 | 4589 ft | 246 kts | 297° |
| 2026-05-04 02:12 | 22.02097 | 113.94317 | 4475 ft | 245 kts | 298° |
| 2026-05-04 02:12 | 22.02925 | 113.92710 | 4352 ft | 245 kts | 298° |
| 2026-05-04 02:12 | 22.03751 | 113.91106 | 4233 ft | 245 kts | 298° |
| 2026-05-04 02:13 | 22.04576 | 113.89505 | 4122 ft | 244 kts | 298° |
| 2026-05-04 02:13 | 22.05131 | 113.88425 | 4037 ft | 243 kts | 298° |
| 2026-05-04 02:13 | 22.06207 | 113.86334 | 3885 ft | 242 kts | 298° |
| 2026-05-04 02:13 | 22.06761 | 113.85258 | 3809 ft | 244 kts | 298° |
| 2026-05-04 02:14 | 22.07585 | 113.83655 | 3694 ft | 245 kts | 299° |
| 2026-05-04 02:14 | 22.08413 | 113.82046 | 3569 ft | 246 kts | 299° |
| 2026-05-04 02:14 | 22.09246 | 113.80426 | 3460 ft | 248 kts | 299° |
| 2026-05-04 02:14 | 22.10081 | 113.78801 | 3340 ft | 248 kts | 300° |
| 2026-05-04 02:15 | 22.11163 | 113.77370 | 3186 ft | 248 kts | 327° |
| 2026-05-04 02:15 | 22.12693 | 113.76553 | 3103 ft | 245 kts | 337° |
| 2026-05-04 02:15 | 22.14215 | 113.75809 | 2959 ft | 231 kts | 337° |
| 2026-05-04 02:15 | 22.15612 | 113.75118 | 2833 ft | 211 kts | 337° |
| 2026-05-04 02:16 | 22.16888 | 113.74484 | 2744 ft | 194 kts | 339° |
| 2026-05-04 02:16 | 22.18072 | 113.73893 | 2644 ft | 185 kts | 339° |
| 2026-05-04 02:16 | 22.19237 | 113.73316 | 2582 ft | 184 kts | 338° |
| 2026-05-04 02:16 | 22.20406 | 113.72733 | 2485 ft | 188 kts | 338° |
| 2026-05-04 02:17 | 22.21658 | 113.72278 | 2469 ft | 188 kts | 1° |
| 2026-05-04 02:17 | 22.22798 | 113.72781 | 2467 ft | 179 kts | 41° |
| 2026-05-04 02:17 | 22.23765 | 113.73637 | 2418 ft | 177 kts | 37° |
| 2026-05-04 02:17 | 22.24755 | 113.74408 | 2399 ft | 176 kts | 37° |
| 2026-05-04 02:18 | 22.25766 | 113.75174 | 2187 ft | 178 kts | 36° |
| 2026-05-04 02:18 | 22.26640 | 113.76100 | 1963 ft | 178 kts | 63° |
| 2026-05-04 02:18 | 22.27005 | 113.77338 | 1837 ft | 174 kts | 68° |
| 2026-05-04 02:18 | 22.27497 | 113.78528 | 1762 ft | 173 kts | 65° |
| 2026-05-04 02:19 | 22.27896 | 113.79754 | 1721 ft | 175 kts | 69° |
| 2026-05-04 02:19 | 22.28279 | 113.80992 | 1692 ft | 172 kts | 69° |
| 2026-05-04 02:19 | 22.28651 | 113.82167 | 1493 ft | 159 kts | 68° |
| 2026-05-04 02:19 | 22.28995 | 113.83246 | 1325 ft | 145 kts | 68° |
| 2026-05-04 02:20 | 22.29326 | 113.84277 | 1121 ft | 145 kts | 68° |
| 2026-05-04 02:20 | 22.29657 | 113.85311 | 937 ft | 146 kts | 69° |
| 2026-05-04 02:20 | 22.29988 | 113.86357 | 717 ft | 149 kts | 70° |
| 2026-05-04 02:20 | 22.30319 | 113.87417 | 528 ft | 149 kts | 68° |
| 2026-05-04 02:21 | 22.30666 | 113.88482 | 322 ft | 150 kts | 68° |
| 2026-05-04 02:21 | 22.31005 | 113.89523 | 114 ft | 142 kts | 69° |
| 2026-05-04 02:21 | 22.31309 | 113.90469 | 28 ft | 123 kts | 67° |
| 2026-05-04 02:21 | 22.31534 | 113.91153 | 30 ft | 66 kts | 70° |
| 2026-05-04 02:22 | 22.31638 | 113.91486 | 31 ft | 41 kts | 74° |
| 2026-05-04 02:22 | 22.31649 | 113.91739 | 29 ft | 17 kts | 100° |
| 2026-05-04 02:22 | 22.31584 | 113.91834 | 29 ft | 16 kts | 153° |
| 2026-05-04 02:22 | 22.31481 | 113.91877 | 29 ft | 16 kts | 161° |
| 2026-05-04 02:23 | 22.31386 | 113.91867 | 30 ft | 15 kts | 234° |
| 2026-05-04 02:23 | 22.31296 | 113.91827 | 30 ft | 15 kts | 231° |
| 2026-05-04 02:23 | 22.31273 | 113.91757 | 30 ft | 0 kts | 249° |